createdAt,value
2023-02-13T00:00:18.771Z,103592.03
2023-02-13T00:03:21.800Z,103593.84
2023-02-13T00:06:26.071Z,103592.06
2023-02-13T00:09:29.043Z,103592.09
2023-02-13T00:12:31.840Z,103592.06
2023-02-13T00:15:34.727Z,103588.53
2023-02-13T00:18:39.032Z,103589.44
2023-02-13T00:21:43.195Z,103590.31
2023-02-13T00:24:45.996Z,103588.56
2023-02-13T00:27:48.829Z,103589.47
2023-02-13T00:30:51.772Z,103592.13
2023-02-13T00:33:56.004Z,103583.25
2023-02-13T00:37:00.217Z,103586.81
2023-02-13T00:40:03.057Z,103588.59
2023-02-13T00:43:05.935Z,103591.28
2023-02-13T00:46:10.946Z,103590.41
2023-02-13T00:49:13.797Z,103596.59
2023-02-13T00:52:17.986Z,103593.06
2023-02-13T00:55:20.801Z,103593.94
2023-02-13T00:58:24.343Z,103592.19
2023-02-13T01:01:27.449Z,103588.66
2023-02-13T01:04:30.320Z,103605.53
2023-02-13T01:07:34.616Z,103593.09
2023-02-13T01:10:38.886Z,103601.09
2023-02-13T01:13:44.296Z,103590.44
2023-02-13T01:16:47.108Z,103601.09
2023-02-13T01:19:50.036Z,103590.44
2023-02-13T01:22:55.107Z,103589.53
2023-02-13T01:25:58.038Z,103590.47
2023-02-13T01:29:01.832Z,103597.56
2023-02-13T01:32:05.202Z,103601.09
2023-02-13T01:35:09.617Z,103601.09
2023-02-13T01:38:13.843Z,103601.13
2023-02-13T01:41:16.700Z,103597.56
2023-02-13T01:44:52.095Z,103602.91
2023-02-13T01:47:57.900Z,103609.13
2023-02-13T01:51:04.207Z,103603.78
2023-02-13T01:54:13.933Z,103602.03
2023-02-13T01:57:22.941Z,103594.91
2023-02-13T02:00:26.612Z,103601.13
2023-02-13T02:03:34.239Z,103601.13
2023-02-13T02:06:45.625Z,103594.94
2023-02-13T02:10:02.011Z,103597.59
2023-02-13T02:13:09.703Z,103602.94
2023-02-13T02:16:14.617Z,103602.94
2023-02-13T02:19:26.427Z,103605.56
2023-02-13T02:23:08.954Z,103604.72
2023-02-13T02:26:44.363Z,103598.50
2023-02-13T02:30:28.153Z,103601.19
2023-02-13T02:33:49.787Z,103606.50
2023-02-13T02:37:10.748Z,103606.50
2023-02-13T02:40:26.697Z,103603.84
2023-02-13T02:43:45.761Z,103597.59
2023-02-13T02:47:20.920Z,103600.25
2023-02-13T02:50:36.743Z,103593.16
2023-02-13T02:53:45.534Z,103591.41
2023-02-13T02:56:50.265Z,103586.94
2023-02-13T03:00:12.146Z,103584.28
2023-02-13T03:03:36.363Z,103592.25
2023-02-13T03:06:46.022Z,103590.50
2023-02-13T03:10:10.483Z,103589.63
2023-02-13T03:13:21.939Z,103583.38
2023-02-13T03:16:43.943Z,103586.97
2023-02-13T03:20:16.862Z,103586.97
2023-02-13T03:23:27.883Z,103589.63
2023-02-13T03:26:52.091Z,103584.31
2023-02-13T03:30:07.431Z,103594.06
2023-02-13T03:33:38.003Z,103594.06
2023-02-13T03:37:06.241Z,103592.25
2023-02-13T03:40:18.298Z,103592.22
2023-02-13T03:43:21.732Z,103588.66
2023-02-13T03:46:27.598Z,103585.09
2023-02-13T03:49:53.022Z,103593.09
2023-02-13T03:53:01.646Z,103585.06
2023-02-13T03:56:25.290Z,103585.94
2023-02-13T03:59:32.197Z,103576.16
2023-02-13T04:02:39.231Z,103576.13
2023-02-13T04:05:46.281Z,103582.34
2023-02-13T04:08:49.483Z,103574.31
2023-02-13T04:12:00.495Z,103580.53
2023-02-13T04:15:10.066Z,103575.22
2023-02-13T04:18:18.259Z,103568.94
2023-02-13T04:21:21.147Z,103575.16
2023-02-13T04:24:23.947Z,103575.19
2023-02-13T04:27:29.399Z,103583.19
2023-02-13T04:30:32.703Z,103581.41
2023-02-13T04:33:35.525Z,103579.59
2023-02-13T04:36:38.451Z,103576.91
2023-02-13T04:39:41.238Z,103581.41
2023-02-13T04:42:45.378Z,103577.84
2023-02-13T04:45:49.831Z,103574.28
2023-02-13T04:48:52.639Z,103568.94
2023-02-13T04:51:55.466Z,103575.19
2023-02-13T04:54:58.384Z,103578.72
2023-02-13T04:58:02.595Z,103581.41
2023-02-13T05:01:13.059Z,103568.94
2023-02-13T05:04:17.587Z,103568.97
2023-02-13T05:07:20.461Z,103565.44
2023-02-13T05:10:23.283Z,103564.56
2023-02-13T05:13:27.975Z,103574.31
2023-02-13T05:16:30.848Z,103572.56
2023-02-13T05:19:33.684Z,103575.25
2023-02-13T05:22:54.018Z,103569.03
2023-02-13T05:25:56.967Z,103577.91
2023-02-13T05:29:18.873Z,103575.25
2023-02-13T05:32:21.686Z,103575.25
2023-02-13T05:35:24.862Z,103583.28
2023-02-13T05:38:27.691Z,103581.50
2023-02-13T05:41:30.745Z,103581.50
2023-02-13T05:44:34.937Z,103574.41
2023-02-13T05:47:38.012Z,103578.81
2023-02-13T05:50:40.939Z,103582.38
2023-02-13T05:53:43.730Z,103587.72
2023-02-13T05:56:47.236Z,103592.16
2023-02-13T05:59:51.383Z,103591.28
2023-02-13T06:02:54.411Z,103599.28
2023-02-13T06:05:57.541Z,103600.13
2023-02-13T06:09:00.370Z,103603.69
2023-02-13T06:12:03.291Z,103606.34
2023-02-13T06:15:08.727Z,103612.56
2023-02-13T06:18:12.016Z,103606.34
2023-02-13T06:21:15.213Z,103610.78
2023-02-13T06:24:18.171Z,103607.22
2023-02-13T06:27:21.085Z,103612.56
2023-02-13T06:30:25.405Z,103625.91
2023-02-13T06:33:28.297Z,103621.47
2023-02-13T06:36:31.496Z,103619.66
2023-02-13T06:39:34.323Z,103617.88
2023-02-13T06:42:37.121Z,103614.34
2023-02-13T06:45:41.499Z,103623.22
2023-02-13T06:48:44.384Z,103611.69
2023-02-13T06:51:47.170Z,103631.22
2023-02-13T06:54:50.035Z,103632.16
2023-02-13T06:57:52.917Z,103639.25
2023-02-13T07:00:57.420Z,103634.81
2023-02-13T07:04:00.908Z,103636.59
2023-02-13T07:07:03.722Z,103638.41
2023-02-13T07:10:08.269Z,103640.16
2023-02-13T07:13:11.502Z,103652.59
2023-02-13T07:16:16.133Z,103647.28
2023-02-13T07:19:19.084Z,103650.84
2023-02-13T07:22:22.093Z,103656.19
2023-02-13T07:25:25.022Z,103658.84
2023-02-13T07:28:28.453Z,103661.50
2023-02-13T07:31:33.292Z,103661.50
2023-02-13T07:34:36.248Z,103653.47
2023-02-13T07:37:39.068Z,103663.28
2023-02-13T07:40:41.986Z,103653.47
2023-02-13T07:43:44.952Z,103655.25
2023-02-13T07:46:49.221Z,103661.47
2023-02-13T07:49:52.215Z,103661.47
2023-02-13T07:52:55.895Z,103660.56
2023-02-13T07:55:59.215Z,103654.34
2023-02-13T07:59:02.228Z,103653.47
2023-02-13T08:02:06.502Z,103658.81
2023-02-13T08:05:10.268Z,103664.16
2023-02-13T08:08:13.198Z,103662.34
2023-02-13T08:11:46.857Z,103665.03
2023-02-13T08:14:49.646Z,103663.28
2023-02-13T08:17:53.985Z,103660.59
2023-02-13T08:20:56.948Z,103663.28
2023-02-13T08:24:00.631Z,103665.06
2023-02-13T08:27:03.638Z,103664.19
2023-02-13T08:30:08.524Z,103663.25
2023-02-13T08:33:12.838Z,103659.72
2023-02-13T08:36:16.206Z,103663.31
2023-02-13T08:39:19.278Z,103649.06
2023-02-13T08:42:22.193Z,103650.84
2023-02-13T08:45:24.972Z,103659.69
2023-02-13T08:48:30.624Z,103663.19
2023-02-13T08:51:33.791Z,103655.13
2023-02-13T08:54:37.023Z,103675.53
2023-02-13T08:57:40.015Z,103671.97
2023-02-13T09:00:42.906Z,103679.06
2023-02-13T09:03:47.186Z,103683.47
2023-02-13T09:06:50.381Z,103681.66
2023-02-13T09:09:53.200Z,103682.53
2023-02-13T09:12:56.130Z,103677.22
2023-02-13T09:16:01.270Z,103678.97
2023-02-13T09:19:05.586Z,103679.00
2023-02-13T09:22:08.471Z,103679.00
2023-02-13T09:25:11.422Z,103674.56
2023-02-13T09:28:14.349Z,103665.69
2023-02-13T09:31:20.029Z,103670.16
2023-02-13T09:34:24.352Z,103667.50
2023-02-13T09:37:27.285Z,103667.50
2023-02-13T09:40:33.807Z,103664.84
2023-02-13T09:43:42.258Z,103671.97
2023-02-13T09:46:45.596Z,103672.00
2023-02-13T09:49:52.863Z,103676.47
2023-02-13T09:52:57.963Z,103677.38
2023-02-13T09:56:10.945Z,103683.59
2023-02-13T09:59:30.482Z,103682.72
2023-02-13T10:02:54.501Z,103679.16
2023-02-13T10:06:06.262Z,103684.50
2023-02-13T10:09:17.848Z,103674.72
2023-02-13T10:12:27.495Z,103681.84
2023-02-13T10:15:43.141Z,103675.63
2023-02-13T10:18:51.439Z,103673.00
2023-02-13T10:21:59.290Z,103675.66
2023-02-13T10:25:07.156Z,103663.22
2023-02-13T10:28:15.470Z,103672.13
2023-02-13T10:31:23.896Z,103669.44
2023-02-13T10:34:32.339Z,103672.13
2023-02-13T10:37:37.423Z,103659.66
2023-02-13T10:40:46.342Z,103665.00
2023-02-13T10:44:06.464Z,103659.66
2023-02-13T10:47:20.643Z,103657.00
2023-02-13T10:50:28.305Z,103651.69
2023-02-13T10:53:47.020Z,103655.19
2023-02-13T10:56:55.591Z,103658.75
2023-02-13T11:00:11.698Z,103649.88
2023-02-13T11:03:20.783Z,103644.53
2023-02-13T11:06:23.666Z,103641.88
2023-02-13T11:09:28.641Z,103642.75
2023-02-13T11:12:33.525Z,103631.19
2023-02-13T11:15:37.134Z,103630.31
2023-02-13T11:18:44.157Z,103638.31
2023-02-13T11:21:48.196Z,103629.41
2023-02-13T11:24:57.151Z,103631.19
2023-02-13T11:28:09.695Z,103623.22
2023-02-13T11:31:16.003Z,103617.88
2023-02-13T11:34:26.088Z,103618.75
2023-02-13T11:37:31.605Z,103623.19
2023-02-13T11:40:36.039Z,103616.94
2023-02-13T11:43:47.645Z,103614.28
2023-02-13T11:46:52.316Z,103613.41
2023-02-13T11:49:55.229Z,103619.63
2023-02-13T11:53:01.076Z,103624.06
2023-02-13T11:56:09.861Z,103623.19
2023-02-13T11:59:14.890Z,103619.66
2023-02-13T12:02:20.953Z,103622.31
2023-02-13T12:05:25.472Z,103625.00
2023-02-13T12:08:29.428Z,103616.97
2023-02-13T12:11:41.865Z,103623.19
2023-02-13T12:14:46.875Z,103625.00
2023-02-13T12:17:59.848Z,103616.97
2023-02-13T12:21:12.061Z,103609.88
2023-02-13T12:24:30.616Z,103617.88
2023-02-13T12:27:46.179Z,103604.53
2023-02-13T12:31:14.779Z,103614.28
2023-02-13T12:34:55.184Z,103615.19
2023-02-13T12:38:02.483Z,103620.53
2023-02-13T12:41:19.895Z,103610.75
2023-02-13T12:44:54.913Z,103608.09
2023-02-13T12:48:17.042Z,103609.88
2023-02-13T12:51:31.707Z,103614.34
2023-02-13T12:54:52.360Z,103609.00
2023-02-13T12:58:08.676Z,103599.19
2023-02-13T13:01:24.730Z,103613.44
2023-02-13T13:04:40.426Z,103620.53
2023-02-13T13:08:00.753Z,103617.00
2023-02-13T13:11:17.507Z,103610.75
2023-02-13T13:14:29.268Z,103621.41
2023-02-13T13:17:45.255Z,103618.75
2023-02-13T13:21:01.336Z,103619.63
2023-02-13T13:24:10.831Z,103611.63
2023-02-13T13:27:20.610Z,103616.94
2023-02-13T13:30:28.234Z,103612.53
2023-02-13T13:33:34.908Z,103615.19
2023-02-13T13:36:44.340Z,103606.28
2023-02-13T13:39:57.274Z,103600.94
2023-02-13T13:43:06.501Z,103604.53
2023-02-13T13:46:16.276Z,103607.22
2023-02-13T13:49:33.625Z,103596.53
2023-02-13T13:52:38.320Z,103583.19
2023-02-13T13:56:05.839Z,103577.88
2023-02-13T13:59:18.494Z,103571.66
2023-02-13T14:02:38.736Z,103572.53
2023-02-13T14:06:07.375Z,103568.06
2023-02-13T14:09:40.956Z,103556.53
2023-02-13T14:12:49.098Z,103552.09
2023-02-13T14:15:55.057Z,103561.00
2023-02-13T14:18:58.128Z,103563.66
2023-02-13T14:22:36.370Z,103561.00
2023-02-13T14:25:39.704Z,103562.78
2023-02-13T14:28:43.897Z,103547.66
2023-02-13T14:32:00.687Z,103545.00
2023-02-13T14:35:16.764Z,103551.25
2023-02-13T14:38:25.826Z,103542.38
2023-02-13T14:41:47.507Z,103534.38
2023-02-13T14:44:52.209Z,103537.03
2023-02-13T14:47:57.826Z,103527.22
2023-02-13T14:51:00.922Z,103525.44
2023-02-13T14:54:10.785Z,103521.88
2023-02-13T14:57:18.389Z,103537.03
2023-02-13T15:00:26.687Z,103540.56
2023-02-13T15:03:34.488Z,103544.13
2023-02-13T15:06:41.773Z,103541.47
2023-02-13T15:09:52.589Z,103552.13
2023-02-13T15:12:58.319Z,103542.38
2023-02-13T15:16:04.916Z,103524.56
2023-02-13T15:19:15.388Z,103533.44
2023-02-13T15:22:21.957Z,103530.78
2023-02-13T15:25:33.288Z,103525.47
2023-02-13T15:28:37.609Z,103516.56
2023-02-13T15:31:40.564Z,103520.13
2023-02-13T15:34:48.260Z,103524.53
2023-02-13T15:37:51.188Z,103524.53
2023-02-13T15:40:59.212Z,103526.31
2023-02-13T15:44:02.658Z,103522.75
2023-02-13T15:47:08.378Z,103529.84
2023-02-13T15:50:18.576Z,103519.19
2023-02-13T15:53:22.970Z,103524.53
2023-02-13T15:56:27.836Z,103536.94
2023-02-13T15:59:34.822Z,103536.94
2023-02-13T16:02:45.429Z,103544.06
2023-02-13T16:05:49.827Z,103543.16
2023-02-13T16:08:54.688Z,103544.06
2023-02-13T16:12:03.040Z,103542.28
2023-02-13T16:15:08.922Z,103551.19
2023-02-13T16:18:19.826Z,103545.84
2023-02-13T16:21:24.739Z,103551.19
2023-02-13T16:24:28.819Z,103540.50
2023-02-13T16:27:35.611Z,103542.28
2023-02-13T16:30:41.942Z,103543.19
2023-02-13T16:33:45.960Z,103551.19
2023-02-13T16:36:48.839Z,103561.84
2023-02-13T16:39:51.681Z,103553.84
2023-02-13T16:43:34.464Z,103551.22
2023-02-13T16:46:38.354Z,103553.88
2023-02-13T16:49:41.214Z,103559.22
2023-02-13T16:52:44.163Z,103556.53
2023-02-13T16:55:47.861Z,103553.88
2023-02-13T16:58:52.252Z,103554.78
2023-02-13T17:02:18.380Z,103558.34
2023-02-13T17:05:24.018Z,103566.31
2023-02-13T17:08:27.339Z,103563.66
2023-02-13T17:11:30.110Z,103567.19
2023-02-13T17:14:34.387Z,103569.88
2023-02-13T17:17:37.179Z,103572.53
2023-02-13T17:20:42.628Z,103568.97
2023-02-13T17:23:47.816Z,103575.19
2023-02-13T17:26:50.599Z,103573.44
2023-02-13T17:29:54.905Z,103579.66
2023-02-13T17:33:00.398Z,103582.34
2023-02-13T17:36:03.770Z,103579.66
2023-02-13T17:39:06.724Z,103581.44
2023-02-13T17:42:16.248Z,103581.44
2023-02-13T17:45:23.242Z,103581.44
2023-02-13T17:48:26.041Z,103576.09
2023-02-13T17:51:28.974Z,103577.88
2023-02-13T17:54:32.997Z,103582.34
2023-02-13T17:57:36.160Z,103579.66
2023-02-13T18:00:40.273Z,103580.56
2023-02-13T18:03:43.102Z,103591.19
2023-02-13T18:06:45.943Z,103589.44
2023-02-13T18:09:48.779Z,103584.09
2023-02-13T18:12:53.079Z,103589.41
2023-02-13T18:15:57.308Z,103586.78
2023-02-13T18:19:00.166Z,103585.88
2023-02-13T18:22:03.043Z,103590.34
2023-02-13T18:25:06.548Z,103581.44
2023-02-13T18:28:09.493Z,103588.53
2023-02-13T18:31:14.303Z,103585.00
2023-02-13T18:34:17.624Z,103590.31
2023-02-13T18:37:21.075Z,103599.19
2023-02-13T18:40:23.959Z,103592.13
2023-02-13T18:43:26.930Z,103593.88
2023-02-13T18:46:31.297Z,103593.88
2023-02-13T18:49:34.435Z,103597.41
2023-02-13T18:52:37.283Z,103595.66
2023-02-13T18:55:40.631Z,103597.41
2023-02-13T18:58:43.643Z,103594.75
2023-02-13T19:01:47.948Z,103593.88
2023-02-13T19:04:51.217Z,103597.41
2023-02-13T19:07:53.984Z,103596.53
2023-02-13T19:11:00.274Z,103593.88
2023-02-13T19:14:03.384Z,103591.19
2023-02-13T19:17:08.508Z,103592.13
2023-02-13T19:20:12.702Z,103591.19
2023-02-13T19:23:16.697Z,103596.56
2023-02-13T19:26:21.365Z,103600.09
2023-02-13T19:29:24.477Z,103598.31
2023-02-13T19:32:28.733Z,103598.31
2023-02-13T19:35:31.613Z,103602.78
2023-02-13T19:38:34.486Z,103601.00
2023-02-13T19:41:37.474Z,103609.00
2023-02-13T19:44:40.275Z,103607.22
2023-02-13T19:47:44.710Z,103604.53
2023-02-13T19:50:47.614Z,103609.91
2023-02-13T19:53:50.444Z,103610.78
2023-02-13T19:56:54.703Z,103609.00
2023-02-13T19:59:57.543Z,103607.22
2023-02-13T20:03:05.685Z,103613.44
2023-02-13T20:06:10.843Z,103615.25
2023-02-13T20:09:14.799Z,103617.03
2023-02-13T20:12:17.627Z,103609.91
2023-02-13T20:15:20.959Z,103615.25
2023-02-13T20:18:25.175Z,103609.88
2023-02-13T20:21:28.167Z,103614.34
2023-02-13T20:24:32.969Z,103611.66
2023-02-13T20:30:41.782Z,103624.13
2023-02-13T20:33:46.920Z,103623.22
2023-02-13T20:36:49.765Z,103633.88
2023-02-13T20:39:52.593Z,103634.75
2023-02-13T20:42:55.439Z,103644.50
2023-02-13T20:45:58.451Z,103632.06
2023-02-13T20:49:03.622Z,103641.88
2023-02-13T20:52:07.047Z,103651.63
2023-02-13T20:55:10.059Z,103655.19
2023-02-13T20:58:13.159Z,103651.59
2023-02-13T21:01:18.298Z,103650.75
2023-02-13T21:04:22.607Z,103652.50
2023-02-13T21:07:25.506Z,103645.41
2023-02-13T21:10:28.311Z,103647.16
2023-02-13T21:13:32.735Z,103642.75
2023-02-13T21:16:37.609Z,103636.50
2023-02-13T21:19:42.039Z,103640.94
2023-02-13T21:22:44.920Z,103651.63
2023-02-13T21:25:47.775Z,103650.75
2023-02-13T21:28:51.440Z,103653.41
2023-02-13T21:31:54.596Z,103655.19
2023-02-13T21:34:59.258Z,103647.19
2023-02-13T21:38:02.091Z,103653.44
2023-02-13T21:41:06.735Z,103648.06
2023-02-13T21:44:13.348Z,103661.41
2023-02-13T21:47:16.450Z,103652.53
2023-02-13T21:50:22.284Z,103648.97
2023-02-13T21:53:25.243Z,103641.88
2023-02-13T21:56:30.539Z,103647.19
2023-02-13T21:59:33.419Z,103639.19
2023-02-13T22:02:36.307Z,103642.72
2023-02-13T22:05:47.011Z,103638.28
2023-02-13T22:08:50.267Z,103647.19
2023-02-13T22:11:54.585Z,103646.31
2023-02-13T22:14:57.481Z,103648.06
2023-02-13T22:18:00.461Z,103653.41
2023-02-13T22:21:07.124Z,103656.06
2023-02-13T22:24:10.225Z,103654.28
2023-02-13T22:27:13.091Z,103662.31
2023-02-13T22:30:16.564Z,103657.88
2023-02-13T22:33:19.471Z,103670.28
2023-02-13T22:36:23.844Z,103663.16
2023-02-13T22:39:26.961Z,103668.50
2023-02-13T22:42:29.835Z,103667.63
2023-02-13T22:45:35.567Z,103664.03
2023-02-13T22:48:39.273Z,103663.16
2023-02-13T22:51:43.524Z,103663.16
2023-02-13T22:54:46.384Z,103665.81
2023-02-13T22:57:53.959Z,103669.34
2023-02-13T23:00:57.201Z,103664.91
2023-02-13T23:04:00.243Z,103660.47
2023-02-13T23:07:04.444Z,103664.00
2023-02-13T23:10:08.451Z,103664.88
2023-02-13T23:13:11.031Z,103665.78
2023-02-13T23:16:14.643Z,103669.31
2023-02-13T23:19:16.812Z,103664.88
2023-02-13T23:22:20.991Z,103677.28
2023-02-13T23:25:23.804Z,103670.19
2023-02-13T23:28:26.732Z,103671.97
2023-02-13T23:31:29.679Z,103665.75
2023-02-13T23:34:32.572Z,103661.31
2023-02-13T23:37:37.100Z,103670.16
2023-02-13T23:40:40.001Z,103666.63
2023-02-13T23:43:42.953Z,103663.97
2023-02-13T23:46:45.987Z,103659.50
2023-02-13T23:49:49.005Z,103664.84
2023-02-13T23:52:53.554Z,103667.50
2023-02-13T23:55:56.615Z,103661.28
2023-02-13T23:58:59.428Z,103667.50
